sensor_id;sensor_type;location;lat;lon;timestamp;pressure;altitude;pressure_sealevel;temperature;humidity
44926;BME280;30662;51.210;7.656;2022-08-21T00:01:30;96508.66;;;17.57;82.32
44926;BME280;30662;51.210;7.656;2022-08-21T00:04:06;96506.28;;;17.41;83.49
44926;BME280;30662;51.210;7.656;2022-08-21T00:06:32;96507.09;;;17.21;84.80
44926;BME280;30662;51.210;7.656;2022-08-21T00:09:00;96502.84;;;17.15;85.47
44926;BME280;30662;51.210;7.656;2022-08-21T00:11:33;96501.78;;;16.95;86.31
44926;BME280;30662;51.210;7.656;2022-08-21T00:14:00;96503.91;;;16.88;87.20
44926;BME280;30662;51.210;7.656;2022-08-21T00:16:26;96500.91;;;16.64;88.75
44926;BME280;30662;51.210;7.656;2022-08-21T00:18:52;96494.53;;;16.65;88.92
44926;BME280;30662;51.210;7.656;2022-08-21T00:21:19;96490.00;;;16.61;89.63
44926;BME280;30662;51.210;7.656;2022-08-21T00:23:45;96492.41;;;16.52;90.66
44926;BME280;30662;51.210;7.656;2022-08-21T00:26:11;96485.72;;;16.44;90.88
44926;BME280;30662;51.210;7.656;2022-08-21T00:28:37;96485.13;;;16.27;91.98
44926;BME280;30662;51.210;7.656;2022-08-21T00:31:03;96480.69;;;16.53;91.09
44926;BME280;30662;51.210;7.656;2022-08-21T00:33:30;96479.88;;;16.47;91.11
44926;BME280;30662;51.210;7.656;2022-08-21T00:35:57;96472.66;;;16.22;92.74
44926;BME280;30662;51.210;7.656;2022-08-21T00:38:23;96474.00;;;16.30;92.21
44926;BME280;30662;51.210;7.656;2022-08-21T00:40:58;96477.72;;;16.39;92.03
44926;BME280;30662;51.210;7.656;2022-08-21T00:43:45;96470.56;;;16.45;91.63
44926;BME280;30662;51.210;7.656;2022-08-21T00:46:11;96466.56;;;16.37;92.34
44926;BME280;30662;51.210;7.656;2022-08-21T00:48:37;96470.25;;;16.36;92.08
44926;BME280;30662;51.210;7.656;2022-08-21T00:51:10;96475.34;;;16.43;92.24
44926;BME280;30662;51.210;7.656;2022-08-21T00:53:40;96470.56;;;16.40;92.35
44926;BME280;30662;51.210;7.656;2022-08-21T00:56:09;96473.22;;;16.40;92.30
44926;BME280;30662;51.210;7.656;2022-08-21T00:58:39;96474.47;;;16.17;94.36
44926;BME280;30662;51.210;7.656;2022-08-21T01:01:09;96468.13;;;16.23;94.07
44926;BME280;30662;51.210;7.656;2022-08-21T01:03:35;96475.03;;;16.24;94.45
44926;BME280;30662;51.210;7.656;2022-08-21T01:06:02;96469.44;;;16.15;94.90
44926;BME280;30662;51.210;7.656;2022-08-21T01:08:30;96469.97;;;16.27;93.97
44926;BME280;30662;51.210;7.656;2022-08-21T01:10:56;96472.91;;;16.26;94.15
44926;BME280;30662;51.210;7.656;2022-08-21T01:13:23;96465.19;;;16.24;93.79
44926;BME280;30662;51.210;7.656;2022-08-21T01:15:51;96462.53;;;16.19;94.12
44926;BME280;30662;51.210;7.656;2022-08-21T01:18:19;96459.25;;;15.87;95.98
44926;BME280;30662;51.210;7.656;2022-08-21T01:23:26;96468.81;;;15.93;96.58
44926;BME280;30662;51.210;7.656;2022-08-21T01:25:52;96461.16;;;16.02;95.90
44926;BME280;30662;51.210;7.656;2022-08-21T01:28:19;96461.16;;;16.02;96.21
44926;BME280;30662;51.210;7.656;2022-08-21T01:30:47;96465.16;;;16.09;95.86
44926;BME280;30662;51.210;7.656;2022-08-21T01:33:14;96461.66;;;15.93;97.29
44926;BME280;30662;51.210;7.656;2022-08-21T01:35:40;96465.59;;;15.86;98.13
44926;BME280;30662;51.210;7.656;2022-08-21T01:38:06;96469.31;;;15.80;98.26
44926;BME280;30662;51.210;7.656;2022-08-21T01:40:32;96465.66;;;15.96;97.86
44926;BME280;30662;51.210;7.656;2022-08-21T01:42:58;96474.97;;;16.04;97.44
44926;BME280;30662;51.210;7.656;2022-08-21T01:45:24;96476.31;;;16.11;96.82
44926;BME280;30662;51.210;7.656;2022-08-21T01:47:50;96470.56;;;16.40;95.37
44926;BME280;30662;51.210;7.656;2022-08-21T01:50:18;96467.88;;;16.30;96.28
44926;BME280;30662;51.210;7.656;2022-08-21T01:52:44;96465.72;;;16.21;97.31
44926;BME280;30662;51.210;7.656;2022-08-21T01:55:11;96469.47;;;16.31;97.25
44926;BME280;30662;51.210;7.656;2022-08-21T01:57:38;96467.63;;;16.41;96.66
44926;BME280;30662;51.210;7.656;2022-08-21T02:00:07;96476.66;;;16.30;96.62
44926;BME280;30662;51.210;7.656;2022-08-21T02:02:34;96466.31;;;16.39;96.35
44926;BME280;30662;51.210;7.656;2022-08-21T02:05:00;96467.91;;;16.65;94.99
44926;BME280;30662;51.210;7.656;2022-08-21T02:07:26;96468.97;;;16.49;95.39
44926;BME280;30662;51.210;7.656;2022-08-21T02:09:51;96463.94;;;16.52;95.65
44926;BME280;30662;51.210;7.656;2022-08-21T02:12:18;96461.81;;;16.54;95.43
44926;BME280;30662;51.210;7.656;2022-08-21T02:14:44;96455.16;;;16.62;95.04
44926;BME280;30662;51.210;7.656;2022-08-21T02:17:10;96453.28;;;16.58;95.56
44926;BME280;30662;51.210;7.656;2022-08-21T02:19:37;96453.56;;;16.56;95.69
44926;BME280;30662;51.210;7.656;2022-08-21T02:22:09;96451.44;;;16.53;96.35
44926;BME280;30662;51.210;7.656;2022-08-21T02:24:36;96450.91;;;16.66;95.81
44926;BME280;30662;51.210;7.656;2022-08-21T02:27:24;96445.84;;;16.65;95.92
44926;BME280;30662;51.210;7.656;2022-08-21T02:29:51;96446.38;;;16.57;96.33
44926;BME280;30662;51.210;7.656;2022-08-21T02:32:17;96442.84;;;16.20;98.09
44926;BME280;30662;51.210;7.656;2022-08-21T02:34:43;96445.53;;;16.36;97.04
44926;BME280;30662;51.210;7.656;2022-08-21T02:37:09;96448.75;;;16.58;94.70
44926;BME280;30662;51.210;7.656;2022-08-21T02:39:35;96451.41;;;16.48;95.12
44926;BME280;30662;51.210;7.656;2022-08-21T02:42:00;96442.69;;;16.83;93.46
44926;BME280;30662;51.210;7.656;2022-08-21T02:44:26;96445.31;;;16.68;93.45
44926;BME280;30662;51.210;7.656;2022-08-21T02:46:59;96446.38;;;16.51;94.62
44926;BME280;30662;51.210;7.656;2022-08-21T02:49:25;96442.09;;;16.35;95.70
44926;BME280;30662;51.210;7.656;2022-08-21T02:51:51;96437.31;;;16.47;95.48
44926;BME280;30662;51.210;7.656;2022-08-21T02:54:17;96437.34;;;16.52;95.37
44926;BME280;30662;51.210;7.656;2022-08-21T02:56:43;96430.44;;;16.62;94.48
44926;BME280;30662;51.210;7.656;2022-08-21T02:59:09;96434.13;;;16.50;95.08
44926;BME280;30662;51.210;7.656;2022-08-21T03:01:34;96428.56;;;16.52;95.00
44926;BME280;30662;51.210;7.656;2022-08-21T03:04:02;96425.34;;;16.50;95.41
44926;BME280;30662;51.210;7.656;2022-08-21T03:06:28;96422.69;;;16.40;95.70
44926;BME280;30662;51.210;7.656;2022-08-21T03:08:54;96422.69;;;16.45;95.52
44926;BME280;30662;51.210;7.656;2022-08-21T03:11:20;96418.72;;;16.37;95.71
44926;BME280;30662;51.210;7.656;2022-08-21T03:13:46;96423.22;;;16.32;96.09
44926;BME280;30662;51.210;7.656;2022-08-21T03:16:12;96418.91;;;16.10;97.62
44926;BME280;30662;51.210;7.656;2022-08-21T03:18:38;96425.06;;;16.31;96.73
44926;BME280;30662;51.210;7.656;2022-08-21T03:21:06;96427.19;;;16.34;96.51
44926;BME280;30662;51.210;7.656;2022-08-21T03:23:32;96427.47;;;16.48;95.33
44926;BME280;30662;51.210;7.656;2022-08-21T03:25:58;96428.81;;;16.66;94.22
44926;BME280;30662;51.210;7.656;2022-08-21T03:28:25;96424.31;;;16.66;93.70
44926;BME280;30662;51.210;7.656;2022-08-21T03:30:51;96421.66;;;16.61;94.14
44926;BME280;30662;51.210;7.656;2022-08-21T03:33:17;96417.91;;;16.42;95.67
44926;BME280;30662;51.210;7.656;2022-08-21T03:35:59;96417.91;;;16.57;95.00
44926;BME280;30662;51.210;7.656;2022-08-21T03:38:28;96425.09;;;16.57;95.12
44926;BME280;30662;51.210;7.656;2022-08-21T03:40:55;96426.16;;;16.40;96.03
44926;BME280;30662;51.210;7.656;2022-08-21T03:43:21;96424.84;;;16.53;94.95
44926;BME280;30662;51.210;7.656;2022-08-21T03:45:47;96428.56;;;16.62;94.92
44926;BME280;30662;51.210;7.656;2022-08-21T03:48:12;96429.66;;;16.71;94.06
44926;BME280;30662;51.210;7.656;2022-08-21T03:50:41;96431.25;;;16.83;93.24
44926;BME280;30662;51.210;7.656;2022-08-21T03:53:10;96425.91;;;16.67;93.77
44926;BME280;30662;51.210;7.656;2022-08-21T03:55:42;96428.59;;;16.77;93.07
44926;BME280;30662;51.210;7.656;2022-08-21T03:58:08;96432.53;;;16.54;94.28
44926;BME280;30662;51.210;7.656;2022-08-21T04:00:44;96435.72;;;16.46;94.75
44926;BME280;30662;51.210;7.656;2022-08-21T04:03:10;96435.44;;;16.43;94.82
44926;BME280;30662;51.210;7.656;2022-08-21T04:05:36;96434.97;;;16.66;93.30
44926;BME280;30662;51.210;7.656;2022-08-21T04:08:04;96431.00;;;16.74;92.26
44926;BME280;30662;51.210;7.656;2022-08-21T04:10:33;96437.06;;;16.39;93.78
44926;BME280;30662;51.210;7.656;2022-08-21T04:13:00;96441.50;;;16.13;95.71
44926;BME280;30662;51.210;7.656;2022-08-21T04:15:26;96438.31;;;16.11;96.44
44926;BME280;30662;51.210;7.656;2022-08-21T04:17:53;96435.94;;;16.09;96.14
44926;BME280;30662;51.210;7.656;2022-08-21T04:20:19;96440.44;;;16.09;96.33
44926;BME280;30662;51.210;7.656;2022-08-21T04:22:48;96438.28;;;15.95;96.80
44926;BME280;30662;51.210;7.656;2022-08-21T04:25:15;96444.44;;;16.11;96.45
44926;BME280;30662;51.210;7.656;2022-08-21T04:27:41;96447.09;;;16.16;95.55
44926;BME280;30662;51.210;7.656;2022-08-21T04:30:08;96441.50;;;16.13;95.71
44926;BME280;30662;51.210;7.656;2022-08-21T04:32:36;96445.75;;;16.09;95.89
44926;BME280;30662;51.210;7.656;2022-08-21T04:35:07;96443.06;;;16.04;96.00
44926;BME280;30662;51.210;7.656;2022-08-21T04:37:33;96450.56;;;16.17;95.03
44926;BME280;30662;51.210;7.656;2022-08-21T04:40:08;96446.84;;;16.23;94.16
44926;BME280;30662;51.210;7.656;2022-08-21T04:42:45;96451.38;;;16.27;93.44
44926;BME280;30662;51.210;7.656;2022-08-21T04:45:20;96449.25;;;16.24;92.89
44926;BME280;30662;51.210;7.656;2022-08-21T04:47:49;96450.81;;;16.20;93.05
44926;BME280;30662;51.210;7.656;2022-08-21T04:50:20;96453.50;;;16.36;91.67
44926;BME280;30662;51.210;7.656;2022-08-21T04:52:47;96450.88;;;16.31;91.64
44926;BME280;30662;51.210;7.656;2022-08-21T04:55:15;96452.97;;;16.23;92.42
44926;BME280;30662;51.210;7.656;2022-08-21T04:57:42;96450.56;;;16.17;92.46
44926;BME280;30662;51.210;7.656;2022-08-21T05:00:16;96449.47;;;16.13;92.68
44926;BME280;30662;51.210;7.656;2022-08-21T05:02:44;96449.22;;;16.19;91.46
44926;BME280;30662;51.210;7.656;2022-08-21T05:05:11;96452.19;;;16.23;91.44
44926;BME280;30662;51.210;7.656;2022-08-21T05:07:37;96449.28;;;16.30;91.27
44926;BME280;30662;51.210;7.656;2022-08-21T05:10:10;96454.06;;;16.38;90.76
44926;BME280;30662;51.210;7.656;2022-08-21T05:12:38;96451.69;;;16.51;89.99
44926;BME280;30662;51.210;7.656;2022-08-21T05:15:05;96460.47;;;16.47;90.38
44926;BME280;30662;51.210;7.656;2022-08-21T05:17:31;96454.91;;;16.59;89.69
44926;BME280;30662;51.210;7.656;2022-08-21T05:19:57;96459.94;;;16.55;88.94
44926;BME280;30662;51.210;7.656;2022-08-21T05:22:23;96461.28;;;16.68;89.46
44926;BME280;30662;51.210;7.656;2022-08-21T05:24:50;96466.88;;;16.66;89.25
44926;BME280;30662;51.210;7.656;2022-08-21T05:27:16;96460.81;;;16.81;88.05
44926;BME280;30662;51.210;7.656;2022-08-21T05:29:43;96466.66;;;16.88;88.11
44926;BME280;30662;51.210;7.656;2022-08-21T05:32:11;96462.94;;;16.89;86.89
44926;BME280;30662;51.210;7.656;2022-08-21T05:34:37;96461.56;;;16.87;86.11
44926;BME280;30662;51.210;7.656;2022-08-21T05:37:04;96458.13;;;16.96;86.03
44926;BME280;30662;51.210;7.656;2022-08-21T05:39:33;96462.38;;;17.07;85.17
44926;BME280;30662;51.210;7.656;2022-08-21T05:42:18;96464.78;;;17.19;84.31
44926;BME280;30662;51.210;7.656;2022-08-21T05:44:44;96462.63;;;17.26;84.07
44926;BME280;30662;51.210;7.656;2022-08-21T05:47:11;96465.03;;;17.33;83.10
44926;BME280;30662;51.210;7.656;2022-08-21T05:49:37;96466.09;;;17.22;82.93
44926;BME280;30662;51.210;7.656;2022-08-21T05:52:04;96471.41;;;17.32;83.49
44926;BME280;30662;51.210;7.656;2022-08-21T05:54:30;96479.38;;;17.37;84.15
44926;BME280;30662;51.210;7.656;2022-08-21T05:56:56;96469.78;;;17.46;82.71
44926;BME280;30662;51.210;7.656;2022-08-21T05:59:23;96470.84;;;17.50;81.35
44926;BME280;30662;51.210;7.656;2022-08-21T06:01:49;96465.22;;;17.52;81.66
44926;BME280;30662;51.210;7.656;2022-08-21T06:04:18;96467.09;;;17.51;81.51
44926;BME280;30662;51.210;7.656;2022-08-21T06:06:43;96463.63;;;17.56;81.28
44926;BME280;30662;51.210;7.656;2022-08-21T06:09:09;96462.84;;;17.50;81.90
44926;BME280;30662;51.210;7.656;2022-08-21T06:11:35;96465.00;;;17.43;82.63
44926;BME280;30662;51.210;7.656;2022-08-21T06:14:01;96459.38;;;17.55;82.29
44926;BME280;30662;51.210;7.656;2022-08-21T06:16:28;96465.78;;;17.54;83.40
44926;BME280;30662;51.210;7.656;2022-08-21T06:18:54;96468.97;;;17.56;82.82
44926;BME280;30662;51.210;7.656;2022-08-21T06:21:27;96468.91;;;17.66;82.14
44926;BME280;30662;51.210;7.656;2022-08-21T06:23:53;96461.97;;;17.80;80.93
44926;BME280;30662;51.210;7.656;2022-08-21T06:26:19;96468.13;;;17.65;81.31
44926;BME280;30662;51.210;7.656;2022-08-21T06:28:45;96472.41;;;17.72;81.36
44926;BME280;30662;51.210;7.656;2022-08-21T06:31:23;96470.53;;;17.72;80.80
44926;BME280;30662;51.210;7.656;2022-08-21T06:33:49;96473.78;;;17.54;81.22
44926;BME280;30662;51.210;7.656;2022-08-21T06:36:18;96470.78;;;17.65;80.35
44926;BME280;30662;51.210;7.656;2022-08-21T06:38:44;96468.41;;;17.64;81.11
44926;BME280;30662;51.210;7.656;2022-08-21T06:41:18;96464.16;;;17.58;82.27
44926;BME280;30662;51.210;7.656;2022-08-21T06:43:49;96460.97;;;17.61;80.29
44926;BME280;30662;51.210;7.656;2022-08-21T06:46:16;96461.47;;;17.68;79.89
44926;BME280;30662;51.210;7.656;2022-08-21T06:48:41;96464.94;;;17.69;80.68
44926;BME280;30662;51.210;7.656;2022-08-21T06:51:07;96458.81;;;17.63;81.25
44926;BME280;30662;51.210;7.656;2022-08-21T06:53:33;96466.78;;;17.78;80.31
44926;BME280;30662;51.210;7.656;2022-08-21T06:55:59;96460.88;;;17.91;79.35
44926;BME280;30662;51.210;7.656;2022-08-21T06:58:25;96461.41;;;17.94;78.99
44926;BME280;30662;51.210;7.656;2022-08-21T07:00:51;96462.25;;;17.89;79.04
44926;BME280;30662;51.210;7.656;2022-08-21T07:03:38;96461.09;;;18.00;78.36
44926;BME280;30662;51.210;7.656;2022-08-21T07:06:07;96465.38;;;17.96;77.50
44926;BME280;30662;51.210;7.656;2022-08-21T07:08:34;96454.97;;;18.05;77.25
44926;BME280;30662;51.210;7.656;2022-08-21T07:11:04;96460.00;;;18.11;76.09
44926;BME280;30662;51.210;7.656;2022-08-21T07:13:32;96466.44;;;18.05;76.44
44926;BME280;30662;51.210;7.656;2022-08-21T07:15:58;96461.63;;;18.02;75.88
44926;BME280;30662;51.210;7.656;2022-08-21T07:18:29;96463.47;;;18.07;77.72
44926;BME280;30662;51.210;7.656;2022-08-21T07:20:55;96466.34;;;18.21;76.65
44926;BME280;30662;51.210;7.656;2022-08-21T07:23:32;96469.03;;;18.21;76.20
44926;BME280;30662;51.210;7.656;2022-08-21T07:25:59;96459.06;;;18.36;74.97
44926;BME280;30662;51.210;7.656;2022-08-21T07:28:27;96459.34;;;18.35;75.77
44926;BME280;30662;51.210;7.656;2022-08-21T07:30:55;96466.88;;;18.23;76.17
44926;BME280;30662;51.210;7.656;2022-08-21T07:33:21;96467.84;;;18.37;76.23
44926;BME280;30662;51.210;7.656;2022-08-21T07:35:47;96465.44;;;18.40;75.20
44926;BME280;30662;51.210;7.656;2022-08-21T07:38:13;96470.00;;;18.35;75.13
44926;BME280;30662;51.210;7.656;2022-08-21T07:40:39;96461.41;;;18.48;75.33
44926;BME280;30662;51.210;7.656;2022-08-21T07:43:05;96470.25;;;18.38;75.52
44926;BME280;30662;51.210;7.656;2022-08-21T07:45:31;96471.47;;;18.12;77.40
44926;BME280;30662;51.210;7.656;2022-08-21T07:47:57;96471.19;;;18.08;78.33
44926;BME280;30662;51.210;7.656;2022-08-21T07:50:23;96473.50;;;18.30;77.33
44926;BME280;30662;51.210;7.656;2022-08-21T07:52:50;96465.47;;;18.35;77.45
44926;BME280;30662;51.210;7.656;2022-08-21T07:55:18;96469.66;;;18.46;77.99
44926;BME280;30662;51.210;7.656;2022-08-21T07:57:46;96476.38;;;18.39;76.87
44926;BME280;30662;51.210;7.656;2022-08-21T08:00:15;96476.88;;;18.46;75.45
44926;BME280;30662;51.210;7.656;2022-08-21T08:02:44;96474.94;;;18.62;74.45
44926;BME280;30662;51.210;7.656;2022-08-21T08:05:11;96477.63;;;18.52;73.71
44926;BME280;30662;51.210;7.656;2022-08-21T08:07:38;96474.44;;;18.55;72.94
44926;BME280;30662;51.210;7.656;2022-08-21T08:10:06;96478.09;;;18.64;73.09
44926;BME280;30662;51.210;7.656;2022-08-21T08:12:34;96463.75;;;18.55;75.23
44926;BME280;30662;51.210;7.656;2022-08-21T08:15:01;96466.06;;;18.71;74.35
44926;BME280;30662;51.210;7.656;2022-08-21T08:17:28;96465.47;;;18.80;73.65
44926;BME280;30662;51.210;7.656;2022-08-21T08:19:54;96463.88;;;18.79;73.07
44926;BME280;30662;51.210;7.656;2022-08-21T08:22:22;96458.88;;;18.67;71.83
44926;BME280;30662;51.210;7.656;2022-08-21T08:24:52;96459.56;;;18.83;72.67
44926;BME280;30662;51.210;7.656;2022-08-21T08:27:18;96458.47;;;18.89;72.96
44926;BME280;30662;51.210;7.656;2022-08-21T08:29:45;96464.56;;;18.94;73.66
44926;BME280;30662;51.210;7.656;2022-08-21T08:32:12;96460.72;;;18.77;73.27
44926;BME280;30662;51.210;7.656;2022-08-21T08:34:39;96459.91;;;18.76;74.97
44926;BME280;30662;51.210;7.656;2022-08-21T08:37:07;96465.53;;;19.04;73.67
44926;BME280;30662;51.210;7.656;2022-08-21T08:39:33;96459.38;;;19.08;73.04
44926;BME280;30662;51.210;7.656;2022-08-21T08:42:07;96460.50;;;19.02;73.65
44926;BME280;30662;51.210;7.656;2022-08-21T08:45:05;96460.78;;;19.00;73.91
44926;BME280;30662;51.210;7.656;2022-08-21T08:47:38;96466.91;;;19.01;72.57
44926;BME280;30662;51.210;7.656;2022-08-21T08:50:25;96475.75;;;18.96;71.63
44926;BME280;30662;51.210;7.656;2022-08-21T08:52:58;96467.19;;;18.99;72.55
44926;BME280;30662;51.210;7.656;2022-08-21T08:55:34;96476.38;;;19.17;71.78
44926;BME280;30662;51.210;7.656;2022-08-21T08:58:01;96465.53;;;19.04;71.98
44926;BME280;30662;51.210;7.656;2022-08-21T09:00:28;96465.22;;;19.10;71.11
44926;BME280;30662;51.210;7.656;2022-08-21T09:02:57;96458.53;;;18.79;71.47
44926;BME280;30662;51.210;7.656;2022-08-21T09:05:35;96459.66;;;19.07;71.41
44926;BME280;30662;51.210;7.656;2022-08-21T09:08:30;96446.84;;;19.33;71.54
44926;BME280;30662;51.210;7.656;2022-08-21T09:11:02;96447.72;;;19.57;71.78
44926;BME280;30662;51.210;7.656;2022-08-21T09:16:53;96457.28;;;19.63;69.49
44926;BME280;30662;51.210;7.656;2022-08-21T09:22:07;96452.84;;;19.48;67.21
44926;BME280;30662;51.210;7.656;2022-08-21T09:25:04;96458.72;;;19.50;67.47
44926;BME280;30662;51.210;7.656;2022-08-21T09:27:33;96449.84;;;19.26;68.01
44926;BME280;30662;51.210;7.656;2022-08-21T09:29:59;96454.50;;;19.15;66.42
44926;BME280;30662;51.210;7.656;2022-08-21T09:32:31;96455.81;;;19.18;68.25
44926;BME280;30662;51.210;7.656;2022-08-21T09:35:14;96451.44;;;19.56;67.84
44926;BME280;30662;51.210;7.656;2022-08-21T09:37:51;96463.25;;;19.79;66.53
44926;BME280;30662;51.210;7.656;2022-08-21T09:40:42;96449.41;;;19.72;65.30
44926;BME280;30662;51.210;7.656;2022-08-21T09:45:40;96446.22;;;19.94;63.75
44926;BME280;30662;51.210;7.656;2022-08-21T09:48:12;96445.34;;;19.98;63.38
44926;BME280;30662;51.210;7.656;2022-08-21T09:50:39;96437.25;;;20.03;62.55
44926;BME280;30662;51.210;7.656;2022-08-21T09:53:15;96439.53;;;19.91;63.55
44926;BME280;30662;51.210;7.656;2022-08-21T09:55:54;96437.78;;;20.24;63.77
44926;BME280;30662;51.210;7.656;2022-08-21T09:58:43;96441.75;;;20.51;61.37
44926;BME280;30662;51.210;7.656;2022-08-21T10:01:22;96432.44;;;20.81;61.61
44926;BME280;30662;51.210;7.656;2022-08-21T10:04:02;96430.06;;;21.26;58.33
44926;BME280;30662;51.210;7.656;2022-08-21T10:06:29;96436.69;;;21.47;58.55
44926;BME280;30662;51.210;7.656;2022-08-21T10:09:14;96433.00;;;21.43;58.26
44926;BME280;30662;51.210;7.656;2022-08-21T10:11:59;96438.97;;;21.54;56.49
44926;BME280;30662;51.210;7.656;2022-08-21T10:17:52;96435.00;;;21.05;57.37
44926;BME280;30662;51.210;7.656;2022-08-21T10:20:33;96436.34;;;20.70;59.31
44926;BME280;30662;51.210;7.656;2022-08-21T10:23:07;96430.09;;;20.60;59.03
44926;BME280;30662;51.210;7.656;2022-08-21T10:26:02;96433.59;;;20.93;58.95
44926;BME280;30662;51.210;7.656;2022-08-21T10:37:18;96425.03;;;22.07;53.89
44926;BME280;30662;51.210;7.656;2022-08-21T10:40:02;96423.56;;;22.50;52.59
44926;BME280;30662;51.210;7.656;2022-08-21T10:42:49;96419.34;;;22.94;51.47
44926;BME280;30662;51.210;7.656;2022-08-21T10:47:54;96418.00;;;22.61;50.23
44926;BME280;30662;51.210;7.656;2022-08-21T10:51:05;96410.81;;;23.23;49.48
44926;BME280;30662;51.210;7.656;2022-08-21T10:58:40;96409.78;;;23.33;48.12
44926;BME280;30662;51.210;7.656;2022-08-21T11:01:37;96406.97;;;23.78;47.28
44926;BME280;30662;51.210;7.656;2022-08-21T11:04:44;96408.63;;;24.22;45.08
44926;BME280;30662;51.210;7.656;2022-08-21T11:10:00;96407.50;;;24.06;44.91
44926;BME280;30662;51.210;7.656;2022-08-21T11:12:40;96404.44;;;23.42;47.12
44926;BME280;30662;51.210;7.656;2022-08-21T11:15:26;96408.78;;;24.26;45.96
44926;BME280;30662;51.210;7.656;2022-08-21T11:18:19;96406.31;;;24.64;44.84
44926;BME280;30662;51.210;7.656;2022-08-21T11:23:40;96400.41;;;24.79;43.48
44926;BME280;30662;51.210;7.656;2022-08-21T11:26:17;96403.38;;;25.12;44.40
44926;BME280;30662;51.210;7.656;2022-08-21T11:28:54;96407.53;;;25.01;44.06
44926;BME280;30662;51.210;7.656;2022-08-21T11:31:34;96407.47;;;25.36;42.22
44926;BME280;30662;51.210;7.656;2022-08-21T11:42:21;96403.75;;;26.37;39.95
44926;BME280;30662;51.210;7.656;2022-08-21T11:45:02;96404.75;;;26.33;39.65
44926;BME280;30662;51.210;7.656;2022-08-21T11:48:00;96400.94;;;26.55;38.52
44926;BME280;30662;51.210;7.656;2022-08-21T11:50:32;96408.59;;;26.53;36.92
44926;BME280;30662;51.210;7.656;2022-08-21T11:53:06;96406.19;;;26.30;37.22
44926;BME280;30662;51.210;7.656;2022-08-21T11:55:53;96415.69;;;26.36;37.23
44926;BME280;30662;51.210;7.656;2022-08-21T11:58:27;96406.41;;;26.67;36.63
44926;BME280;30662;51.210;7.656;2022-08-21T12:00:58;96399.06;;;27.01;36.77
44926;BME280;30662;51.210;7.656;2022-08-21T12:03:29;96396.94;;;27.52;35.19
44926;BME280;30662;51.210;7.656;2022-08-21T12:05:57;96406.25;;;26.84;35.40
44926;BME280;30662;51.210;7.656;2022-08-21T12:08:28;96402.25;;;26.70;35.26
44926;BME280;30662;51.210;7.656;2022-08-21T12:16:34;96397.09;;;26.77;36.58
44926;BME280;30662;51.210;7.656;2022-08-21T12:19:06;96398.69;;;26.15;36.66
44926;BME280;30662;51.210;7.656;2022-08-21T12:21:32;96407.75;;;25.43;38.56
44926;BME280;30662;51.210;7.656;2022-08-21T12:26:58;96402.16;;;25.48;37.89
44926;BME280;30662;51.210;7.656;2022-08-21T12:29:35;96401.94;;;25.62;38.07
44926;BME280;30662;51.210;7.656;2022-08-21T12:32:19;96403.72;;;25.96;37.80
44926;BME280;30662;51.210;7.656;2022-08-21T12:34:53;96402.75;;;26.00;37.42
44926;BME280;30662;51.210;7.656;2022-08-21T12:37:46;96400.03;;;26.00;37.43
44926;BME280;30662;51.210;7.656;2022-08-21T12:40:28;96394.69;;;25.53;38.42
44926;BME280;30662;51.210;7.656;2022-08-21T12:42:58;96399.50;;;26.07;38.36
44926;BME280;30662;51.210;7.656;2022-08-21T12:45:31;96395.28;;;25.97;38.65
44926;BME280;30662;51.210;7.656;2022-08-21T12:48:12;96390.31;;;26.71;37.62
44926;BME280;30662;51.210;7.656;2022-08-21T12:50:55;96395.25;;;26.69;36.87
44926;BME280;30662;51.210;7.656;2022-08-21T12:53:45;96388.28;;;27.58;35.89
44926;BME280;30662;51.210;7.656;2022-08-21T12:56:17;96396.84;;;28.21;34.03
44926;BME280;30662;51.210;7.656;2022-08-21T12:58:51;96392.59;;;27.71;33.76
44926;BME280;30662;51.210;7.656;2022-08-21T13:01:38;96381.84;;;27.63;34.14
44926;BME280;30662;51.210;7.656;2022-08-21T13:04:12;96395.44;;;27.17;35.55
44926;BME280;30662;51.210;7.656;2022-08-21T13:06:47;96388.28;;;27.95;33.54
44926;BME280;30662;51.210;7.656;2022-08-21T13:09:19;96378.44;;;28.15;32.01
44926;BME280;30662;51.210;7.656;2022-08-21T13:11:47;96383.44;;;28.00;31.79
44926;BME280;30662;51.210;7.656;2022-08-21T13:14:28;96388.13;;;27.18;34.17
44926;BME280;30662;51.210;7.656;2022-08-21T13:16:57;96383.25;;;27.69;34.84
44926;BME280;30662;51.210;7.656;2022-08-21T13:19:25;96383.19;;;27.57;34.24
44926;BME280;30662;51.210;7.656;2022-08-21T13:21:51;96391.09;;;27.62;33.99
44926;BME280;30662;51.210;7.656;2022-08-21T13:24:22;96389.53;;;27.03;35.00
44926;BME280;30662;51.210;7.656;2022-08-21T13:27:38;96375.22;;;27.72;34.85
44926;BME280;30662;51.210;7.656;2022-08-21T13:30:11;96386.28;;;28.04;33.71
44926;BME280;30662;51.210;7.656;2022-08-21T13:32:47;96383.00;;;28.11;33.69
44926;BME280;30662;51.210;7.656;2022-08-21T13:35:16;96383.56;;;27.80;33.08
44926;BME280;30662;51.210;7.656;2022-08-21T13:37:43;96374.00;;;27.70;33.61
44926;BME280;30662;51.210;7.656;2022-08-21T13:40:13;96377.88;;;27.24;33.44
44926;BME280;30662;51.210;7.656;2022-08-21T13:42:43;96384.91;;;27.04;33.81
44926;BME280;30662;51.210;7.656;2022-08-21T13:45:22;96386.28;;;26.77;35.25
44926;BME280;30662;51.210;7.656;2022-08-21T13:47:48;96388.69;;;26.90;34.19
44926;BME280;30662;51.210;7.656;2022-08-21T13:50:16;96394.00;;;26.99;34.89
44926;BME280;30662;51.210;7.656;2022-08-21T13:52:53;96375.28;;;27.27;34.13
44926;BME280;30662;51.210;7.656;2022-08-21T13:55:23;96372.34;;;27.44;33.49
44926;BME280;30662;51.210;7.656;2022-08-21T13:58:01;96372.84;;;27.83;33.67
44926;BME280;30662;51.210;7.656;2022-08-21T14:00:29;96371.72;;;27.60;33.64
44926;BME280;30662;51.210;7.656;2022-08-21T14:03:04;96374.13;;;27.16;34.14
44926;BME280;30662;51.210;7.656;2022-08-21T14:05:34;96376.81;;;26.50;34.38
44926;BME280;30662;51.210;7.656;2022-08-21T14:08:19;96378.97;;;26.35;35.47
44926;BME280;30662;51.210;7.656;2022-08-21T14:10:56;96371.22;;;26.88;33.95
44926;BME280;30662;51.210;7.656;2022-08-21T14:15:58;96370.88;;;26.56;34.57